createdAt,value
2023-05-09T00:01:15.277Z,95612.75
2023-05-09T00:03:43.770Z,95616.53
2023-05-09T00:06:13.545Z,95618.63
2023-05-09T00:08:41.682Z,95607.34
2023-05-09T00:11:09.680Z,95604.13
2023-05-09T00:13:39.031Z,95604.78
2023-05-09T00:16:08.311Z,95619.16
2023-05-09T00:18:36.800Z,95612.53
2023-05-09T00:21:05.166Z,95611.63
2023-05-09T00:23:33.214Z,95618.59
2023-05-09T00:26:01.620Z,95609.50
2023-05-09T00:28:29.620Z,95605.19
2023-05-09T00:30:59.079Z,95591.19
2023-05-09T00:33:27.734Z,95601.34
2023-05-09T00:35:55.863Z,95598.66
2023-05-09T00:38:24.664Z,95603.41
2023-05-09T00:40:52.783Z,95602.66
2023-05-09T00:43:22.349Z,95595.66
2023-05-09T00:45:50.977Z,95597.44
2023-05-09T00:48:21.615Z,95578.53
2023-05-09T00:50:53.123Z,95604.09
2023-05-09T00:53:21.603Z,95599.91
2023-05-09T00:55:49.811Z,95592.25
2023-05-09T00:58:19.429Z,95602.66
2023-05-09T01:00:48.072Z,95600.16
2023-05-09T01:03:16.423Z,95585.53
2023-05-09T01:05:57.087Z,95590.00
2023-05-09T01:08:38.610Z,95598.13
2023-05-09T01:11:12.818Z,95587.63
2023-05-09T01:13:57.265Z,95585.78
2023-05-09T01:16:31.710Z,95593.97
2023-05-09T01:19:09.430Z,95591.97
2023-05-09T01:21:40.225Z,95596.75
2023-05-09T01:24:44.741Z,95600.47
2023-05-09T01:27:35.636Z,95594.84
2023-05-09T01:30:07.422Z,95588.28
2023-05-09T01:32:39.191Z,95587.00
2023-05-09T01:35:10.774Z,95596.06
2023-05-09T01:37:43.088Z,95600.13
2023-05-09T01:40:16.761Z,95600.50
2023-05-09T01:42:48.778Z,95594.53
2023-05-09T01:45:19.697Z,95576.84
2023-05-09T01:47:50.182Z,95585.78
2023-05-09T01:50:20.477Z,95598.84
2023-05-09T01:52:51.304Z,95608.06
2023-05-09T01:55:20.882Z,95605.81
2023-05-09T01:57:50.128Z,95602.59
2023-05-09T02:00:21.258Z,95607.88
2023-05-09T02:02:49.777Z,95581.94
2023-05-09T02:05:19.388Z,95605.81
2023-05-09T02:07:48.758Z,95592.75
2023-05-09T02:10:17.402Z,95582.69
2023-05-09T02:12:45.437Z,95600.66
2023-05-09T02:15:13.581Z,95598.19
2023-05-09T02:17:43.395Z,95584.78
2023-05-09T02:20:12.223Z,95601.38
2023-05-09T02:22:41.666Z,95603.06
2023-05-09T02:25:11.230Z,95583.69
2023-05-09T02:27:40.758Z,95591.47
2023-05-09T02:30:12.814Z,95600.13
2023-05-09T02:32:44.506Z,95591.88
2023-05-09T02:35:14.487Z,95604.41
2023-05-09T02:37:43.611Z,95605.19
2023-05-09T02:40:12.754Z,95606.44
2023-05-09T02:42:40.810Z,95605.00
2023-05-09T02:45:11.212Z,95610.88
2023-05-09T02:47:39.805Z,95605.81
2023-05-09T02:50:10.072Z,95578.50
2023-05-09T02:52:38.074Z,95594.03
2023-05-09T02:55:07.459Z,95606.34
2023-05-09T02:57:35.431Z,95606.34
2023-05-09T03:00:03.471Z,95610.03
2023-05-09T03:02:31.557Z,95612.97
2023-05-09T03:04:59.513Z,95607.44
2023-05-09T03:07:28.836Z,95619.84
2023-05-09T03:09:56.974Z,95608.56
2023-05-09T03:12:25.310Z,95619.97
2023-05-09T03:14:53.210Z,95604.25
2023-05-09T03:17:21.603Z,95618.13
2023-05-09T03:19:49.955Z,95639.56
2023-05-09T03:22:17.975Z,95638.56
2023-05-09T03:24:47.254Z,95645.66
2023-05-09T03:27:15.332Z,95627.44
2023-05-09T03:29:43.338Z,95654.09
2023-05-09T03:32:13.883Z,95626.44
2023-05-09T03:34:42.948Z,95658.84
2023-05-09T03:37:11.070Z,95638.22
2023-05-09T03:39:39.452Z,95669.47
2023-05-09T03:42:08.761Z,95657.69
2023-05-09T03:44:36.736Z,95657.13
2023-05-09T03:47:04.972Z,95666.16
2023-05-09T03:49:32.964Z,95663.66
2023-05-09T03:52:00.890Z,95657.88
2023-05-09T03:54:28.903Z,95656.75
2023-05-09T03:56:56.887Z,95630.59
2023-05-09T03:59:26.379Z,95654.34
2023-05-09T04:01:55.036Z,95671.81
2023-05-09T04:04:23.303Z,95659.66
2023-05-09T04:06:51.292Z,95662.59
2023-05-09T04:09:19.500Z,95664.31
2023-05-09T04:11:47.769Z,95673.16
2023-05-09T04:14:15.908Z,95663.25
2023-05-09T04:16:45.378Z,95666.31
2023-05-09T04:19:13.348Z,95671.47
2023-05-09T04:21:41.364Z,95677.88
2023-05-09T04:24:09.578Z,95669.78
2023-05-09T04:26:39.123Z,95672.97
2023-05-09T04:29:07.214Z,95679.88
2023-05-09T04:31:35.430Z,95677.16
2023-05-09T04:34:04.895Z,95676.28
2023-05-09T04:36:33.994Z,95676.75
2023-05-09T04:39:02.516Z,95675.41
2023-05-09T04:41:32.543Z,95666.06
2023-05-09T04:44:01.085Z,95681.75
2023-05-09T04:46:29.171Z,95664.94
2023-05-09T04:48:57.129Z,95671.38
2023-05-09T04:51:26.648Z,95643.50
2023-05-09T04:53:54.743Z,95677.03
2023-05-09T04:56:22.739Z,95654.25
2023-05-09T04:58:51.484Z,95670.41
2023-05-09T05:01:19.694Z,95666.84
2023-05-09T05:03:47.724Z,95658.94
2023-05-09T05:06:16.736Z,95666.16
2023-05-09T05:08:46.111Z,95655.22
2023-05-09T05:11:14.132Z,95664.38
2023-05-09T05:13:42.178Z,95677.28
2023-05-09T05:16:10.221Z,95612.16
2023-05-09T05:18:38.152Z,95671.50
2023-05-09T05:21:06.289Z,95672.31
2023-05-09T05:23:34.317Z,95669.16
2023-05-09T05:26:03.879Z,95667.34
2023-05-09T05:28:31.827Z,95676.41
2023-05-09T05:30:59.831Z,95675.03
2023-05-09T05:33:27.846Z,95673.69
2023-05-09T05:35:55.914Z,95678.19
2023-05-09T05:38:23.851Z,95673.69
2023-05-09T05:40:51.871Z,95674.47
2023-05-09T05:43:21.286Z,95679.88
2023-05-09T05:45:49.230Z,95679.75
2023-05-09T05:48:17.244Z,95677.19
2023-05-09T05:50:45.192Z,95682.34
2023-05-09T05:53:13.145Z,95665.41
2023-05-09T05:55:41.248Z,95664.63
2023-05-09T05:58:09.232Z,95671.63
2023-05-09T06:00:38.680Z,95637.63
2023-05-09T06:03:06.659Z,95602.72
2023-05-09T06:05:35.000Z,95628.03
2023-05-09T06:08:03.010Z,95656.03
2023-05-09T06:10:31.024Z,95657.66
2023-05-09T06:12:59.126Z,95674.63
2023-05-09T06:15:27.265Z,95545.41
2023-05-09T06:17:56.819Z,95626.97
2023-05-09T06:20:43.254Z,95672.69
2023-05-09T06:23:11.205Z,95670.84
2023-05-09T06:25:39.164Z,95665.19
2023-05-09T06:28:07.346Z,95651.91
2023-05-09T06:30:35.292Z,95670.66
2023-05-09T06:33:04.731Z,95668.78
2023-05-09T06:35:32.765Z,95675.13
2023-05-09T06:38:00.849Z,95652.50
2023-05-09T06:40:29.288Z,95610.88
2023-05-09T06:42:57.227Z,95647.19
2023-05-09T06:45:25.246Z,95656.47
2023-05-09T06:47:53.521Z,95668.41
2023-05-09T06:50:22.832Z,95668.13
2023-05-09T06:52:50.770Z,95659.88
2023-05-09T06:55:19.022Z,95644.47
2023-05-09T06:57:47.023Z,95668.25
2023-05-09T07:00:16.544Z,95665.00
2023-05-09T07:02:44.667Z,95612.00
2023-05-09T07:05:12.870Z,95670.56
2023-05-09T07:07:42.356Z,95658.91
2023-05-09T07:10:12.691Z,95662.59
2023-05-09T07:12:41.808Z,95655.25
2023-05-09T07:15:11.489Z,95642.88
2023-05-09T07:17:39.662Z,95656.34
2023-05-09T07:20:08.745Z,95641.53
2023-05-09T07:22:37.779Z,95657.50
2023-05-09T07:25:09.550Z,95667.31
2023-05-09T07:27:37.839Z,95663.38
2023-05-09T07:30:06.377Z,95643.00
2023-05-09T07:32:34.626Z,95646.41
2023-05-09T07:35:03.171Z,95662.31
2023-05-09T07:37:31.602Z,95650.47
2023-05-09T07:40:00.506Z,95670.38
2023-05-09T07:42:30.434Z,95668.00
2023-05-09T07:44:59.196Z,95617.63
2023-05-09T07:47:27.222Z,95670.44
2023-05-09T07:49:55.491Z,95678.59
2023-05-09T07:52:23.677Z,95681.16
2023-05-09T07:54:51.728Z,95661.72
2023-05-09T07:57:19.837Z,95677.31
2023-05-09T07:59:49.425Z,95668.50
2023-05-09T08:02:17.384Z,95655.28
2023-05-09T08:04:49.069Z,95664.78
2023-05-09T08:07:17.666Z,95665.13
2023-05-09T08:09:46.687Z,95673.13
2023-05-09T08:12:14.664Z,95678.25
2023-05-09T08:14:42.776Z,95623.41
2023-05-09T08:17:12.142Z,95677.69
2023-05-09T08:19:40.153Z,95671.19
2023-05-09T08:22:08.110Z,95669.09
2023-05-09T08:24:36.341Z,95676.25
2023-05-09T08:27:04.833Z,95653.38
2023-05-09T08:29:33.023Z,95669.00
2023-05-09T08:32:01.121Z,95666.88
2023-05-09T08:34:31.435Z,95672.78
2023-05-09T08:36:59.433Z,95675.50
2023-05-09T08:39:27.431Z,95669.31
2023-05-09T08:42:00.101Z,95661.88
2023-05-09T08:44:28.895Z,95655.22
2023-05-09T08:47:00.655Z,95659.28
2023-05-09T08:49:31.138Z,95621.19
2023-05-09T08:52:00.173Z,95662.59
2023-05-09T08:54:28.841Z,95664.34
2023-05-09T08:56:57.855Z,95668.41
2023-05-09T08:59:26.622Z,95601.63
2023-05-09T09:01:55.878Z,95648.72
2023-05-09T09:04:24.066Z,95642.84
2023-05-09T09:06:55.112Z,95646.63
2023-05-09T09:09:24.550Z,95652.63
2023-05-09T09:11:53.395Z,95654.25
2023-05-09T09:14:26.699Z,95635.16
2023-05-09T09:16:56.940Z,95632.91
2023-05-09T09:19:31.252Z,95648.88
2023-05-09T09:22:04.593Z,95637.94
2023-05-09T09:24:32.701Z,95655.59
2023-05-09T09:27:06.649Z,95638.75
2023-05-09T09:29:35.055Z,95650.50
2023-05-09T09:32:04.516Z,95658.59
2023-05-09T09:34:33.008Z,95662.28
2023-05-09T09:37:02.444Z,95596.81
2023-05-09T09:39:30.977Z,95660.13
2023-05-09T09:42:14.040Z,95667.84
2023-05-09T09:44:41.967Z,95619.34
2023-05-09T09:47:11.657Z,95669.28
2023-05-09T09:49:47.748Z,95652.72
2023-05-09T09:52:27.127Z,95660.75
2023-05-09T09:54:57.326Z,95663.03
2023-05-09T09:57:35.362Z,95645.56
2023-05-09T10:00:04.186Z,95646.59
2023-05-09T10:02:32.531Z,95661.25
2023-05-09T10:05:08.625Z,95656.53
2023-05-09T10:07:38.535Z,95635.53
2023-05-09T10:10:07.661Z,95655.56
2023-05-09T10:12:37.714Z,95670.88
2023-05-09T10:15:08.312Z,95652.69
2023-05-09T10:17:36.828Z,95636.91
2023-05-09T10:20:07.411Z,95623.47
2023-05-09T10:22:40.482Z,95660.63
2023-05-09T10:25:15.917Z,95641.81
2023-05-09T10:27:47.744Z,95628.34
2023-05-09T10:30:19.952Z,95634.09
2023-05-09T10:32:53.559Z,95620.97
2023-05-09T10:35:26.178Z,95641.25
2023-05-09T10:37:58.233Z,95630.75
2023-05-09T10:40:27.278Z,95524.22
2023-05-09T10:42:55.432Z,95642.13
2023-05-09T10:45:23.991Z,95632.25
2023-05-09T10:47:53.896Z,95651.66
2023-05-09T10:50:22.597Z,95625.00
2023-05-09T10:53:17.075Z,95646.66
2023-05-09T10:55:52.954Z,95639.88
2023-05-09T10:58:23.249Z,95591.00
2023-05-09T11:00:53.498Z,95654.88
2023-05-09T11:03:23.666Z,95638.59
2023-05-09T11:05:53.456Z,95590.59
2023-05-09T11:08:27.560Z,95647.25
2023-05-09T11:10:56.383Z,95638.16
2023-05-09T11:13:26.023Z,95655.78
2023-05-09T11:16:11.319Z,95649.47
2023-05-09T11:18:53.332Z,95651.56
2023-05-09T11:21:22.220Z,95647.19
2023-05-09T11:23:54.995Z,95650.69
2023-05-09T11:26:33.020Z,95634.91
2023-05-09T11:29:02.836Z,95608.34
2023-05-09T11:31:30.755Z,95656.28
2023-05-09T11:34:04.958Z,95655.25
2023-05-09T11:36:33.903Z,95652.69
2023-05-09T11:39:07.237Z,95651.03
2023-05-09T11:41:43.029Z,95654.13
2023-05-09T11:44:19.049Z,95657.25
2023-05-09T11:46:48.088Z,95599.56
2023-05-09T11:49:18.066Z,95651.28
2023-05-09T11:51:46.222Z,95644.69
2023-05-09T11:54:15.664Z,95651.53
2023-05-09T11:56:44.004Z,95644.84
2023-05-09T11:59:15.100Z,95627.81
2023-05-09T12:01:43.191Z,95628.97
2023-05-09T12:04:11.271Z,95627.53
2023-05-09T12:06:39.328Z,95654.63
2023-05-09T12:09:09.283Z,95658.56
2023-05-09T12:11:38.833Z,95646.06
2023-05-09T12:14:07.134Z,95643.22
2023-05-09T12:16:35.231Z,95596.84
2023-05-09T12:19:04.125Z,95651.13
2023-05-09T12:21:33.655Z,95623.94
2023-05-09T12:24:01.815Z,95619.25
2023-05-09T12:26:30.048Z,95599.22
2023-05-09T12:29:00.481Z,95659.34
2023-05-09T12:31:28.764Z,95646.44
2023-05-09T12:33:56.997Z,95650.22
2023-05-09T12:36:26.411Z,95646.69
2023-05-09T12:38:55.405Z,95655.16
2023-05-09T12:43:56.389Z,95656.69
2023-05-09T12:46:26.163Z,95660.19
2023-05-09T12:48:54.291Z,95640.59
2023-05-09T12:51:23.238Z,95625.59
2023-05-09T12:53:51.476Z,95627.28
2023-05-09T12:56:22.961Z,95620.81
2023-05-09T12:58:52.417Z,95655.25
2023-05-09T13:01:20.859Z,95594.22
2023-05-09T13:03:54.765Z,95640.16
2023-05-09T13:06:24.286Z,95647.00
2023-05-09T13:09:00.319Z,95644.28
2023-05-09T13:11:29.002Z,95631.91
2023-05-09T13:13:59.704Z,95639.31
2023-05-09T13:16:27.814Z,95625.09
2023-05-09T13:18:57.258Z,95589.56
2023-05-09T13:21:25.197Z,95623.53
2023-05-09T13:23:53.102Z,95613.59
2023-05-09T13:26:21.266Z,95622.63
2023-05-09T13:28:49.657Z,95630.06
2023-05-09T13:31:17.871Z,95597.34
2023-05-09T13:33:45.959Z,95612.13
2023-05-09T13:36:15.433Z,95637.06
2023-05-09T13:38:45.547Z,95616.31
2023-05-09T13:41:13.948Z,95628.44
2023-05-09T13:43:42.677Z,95622.56
2023-05-09T13:46:10.940Z,95622.66
2023-05-09T13:48:39.863Z,95615.78
2023-05-09T13:51:08.749Z,95623.16
2023-05-09T13:53:40.147Z,95635.91
2023-05-09T13:56:09.782Z,95616.50
2023-05-09T13:58:37.933Z,95618.00
2023-05-09T14:01:06.373Z,95618.22
2023-05-09T14:03:34.370Z,95628.94
2023-05-09T14:06:02.954Z,95574.63
2023-05-09T14:08:30.965Z,95630.84
2023-05-09T14:11:00.295Z,95630.47
2023-05-09T14:13:28.778Z,95607.03
2023-05-09T14:15:56.877Z,95633.75
2023-05-09T14:18:24.844Z,95616.06
2023-05-09T14:20:53.380Z,95624.84
2023-05-09T14:23:22.516Z,95599.00
2023-05-09T14:25:50.731Z,95628.22
2023-05-09T14:28:20.106Z,95588.25
2023-05-09T14:30:48.040Z,95582.41
2023-05-09T14:33:17.682Z,95622.06
2023-05-09T14:35:45.750Z,95609.84
2023-05-09T14:38:14.742Z,95617.88
2023-05-09T14:40:42.847Z,95609.50
2023-05-09T14:43:11.369Z,95613.81
2023-05-09T14:45:40.732Z,95623.63
2023-05-09T14:48:08.750Z,95618.47
2023-05-09T14:50:39.523Z,95623.78
2023-05-09T14:53:07.735Z,95619.91
2023-05-09T14:55:35.864Z,95595.22
2023-05-09T14:58:04.052Z,95611.47
2023-05-09T15:00:33.171Z,95615.75
2023-05-09T15:03:03.428Z,95631.88
2023-05-09T15:05:31.539Z,95621.47
2023-05-09T15:08:01.180Z,95620.78
2023-05-09T15:10:29.436Z,95621.25
2023-05-09T15:12:57.470Z,95610.97
2023-05-09T15:15:25.772Z,95619.78
2023-05-09T15:17:54.931Z,95563.44
2023-05-09T15:20:24.393Z,95612.78
2023-05-09T15:22:53.622Z,95592.25
2023-05-09T15:25:22.238Z,95617.19
2023-05-09T15:27:50.533Z,95608.81
2023-05-09T15:30:18.698Z,95621.25
2023-05-09T15:32:46.973Z,95627.22
2023-05-09T15:35:15.955Z,95581.94
2023-05-09T15:37:45.495Z,95619.28
2023-05-09T15:40:14.791Z,95592.06
2023-05-09T15:42:43.408Z,95601.31
2023-05-09T15:45:11.625Z,95610.53
2023-05-09T15:47:39.682Z,95600.56
2023-05-09T15:50:08.871Z,95624.25
2023-05-09T15:52:36.818Z,95620.88
2023-05-09T15:55:07.373Z,95629.88
2023-05-09T15:57:35.476Z,95621.28
2023-05-09T16:00:05.696Z,95601.63
2023-05-09T16:02:33.797Z,95624.19
2023-05-09T16:05:01.797Z,95621.03
2023-05-09T16:07:29.811Z,95637.06
2023-05-09T16:09:57.775Z,95626.78
2023-05-09T16:12:27.276Z,95629.84
2023-05-09T16:14:58.995Z,95595.41
2023-05-09T16:17:27.045Z,95637.47
2023-05-09T16:19:55.671Z,95637.69
2023-05-09T16:22:23.723Z,95634.84
2023-05-09T16:24:51.688Z,95629.97
2023-05-09T16:27:19.735Z,95603.06
2023-05-09T16:29:49.347Z,95642.28
2023-05-09T16:32:17.329Z,95643.28
2023-05-09T16:34:45.276Z,95638.44
2023-05-09T16:37:13.270Z,95642.53
2023-05-09T16:39:41.270Z,95652.50
2023-05-09T16:42:09.442Z,95610.88
2023-05-09T16:44:37.609Z,95652.75
2023-05-09T16:47:07.082Z,95643.66
2023-05-09T16:49:35.187Z,95656.28
2023-05-09T16:52:03.170Z,95617.00
2023-05-09T16:54:32.305Z,95644.59
2023-05-09T16:57:00.272Z,95639.88
2023-05-09T16:59:28.440Z,95642.84
2023-05-09T17:01:57.724Z,95655.50
2023-05-09T17:04:27.553Z,95633.22
2023-05-09T17:06:56.211Z,95659.31
2023-05-09T17:09:24.625Z,95644.41
2023-05-09T17:11:52.599Z,95658.06
2023-05-09T17:14:20.699Z,95651.00
2023-05-09T17:16:48.722Z,95658.59
2023-05-09T17:19:17.399Z,95645.66
2023-05-09T17:21:47.243Z,95650.06
2023-05-09T17:24:15.871Z,95657.25
2023-05-09T17:26:43.907Z,95656.19
2023-05-09T17:29:12.345Z,95659.25
2023-05-09T17:31:40.337Z,95675.59
2023-05-09T17:34:08.290Z,95664.00
2023-05-09T17:36:36.545Z,95650.97
2023-05-09T17:39:07.662Z,95663.34
2023-05-09T17:41:35.632Z,95663.81
2023-05-09T17:44:04.436Z,95659.25
2023-05-09T17:46:33.211Z,95656.72
2023-05-09T17:49:01.232Z,95671.63
2023-05-09T17:51:29.826Z,95657.84
2023-05-09T17:53:57.883Z,95658.31
2023-05-09T17:56:27.318Z,95674.50
2023-05-09T17:58:56.177Z,95675.50
2023-05-09T18:01:24.422Z,95673.44
2023-05-09T18:03:53.276Z,95583.09
2023-05-09T18:06:21.723Z,95670.50
2023-05-09T18:08:49.697Z,95678.25
2023-05-09T18:11:17.728Z,95683.47
2023-05-09T18:13:47.710Z,95687.16
2023-05-09T18:16:15.744Z,95696.06
2023-05-09T18:18:44.916Z,95700.34
2023-05-09T18:21:13.013Z,95691.50
2023-05-09T18:23:41.440Z,95699.44
2023-05-09T18:26:09.460Z,95667.94
2023-05-09T18:28:39.521Z,95695.34
2023-05-09T18:31:13.675Z,95706.00
2023-05-09T18:33:41.692Z,95708.84
2023-05-09T18:36:11.096Z,95629.59
2023-05-09T18:38:39.912Z,95702.97
2023-05-09T18:41:09.205Z,95651.78
2023-05-09T18:43:38.937Z,95626.28
2023-05-09T18:46:07.879Z,95657.50
2023-05-09T18:48:37.355Z,95695.88
2023-05-09T18:51:05.544Z,95635.47
2023-05-09T18:53:33.577Z,95693.50
2023-05-09T18:56:01.918Z,95709.97
2023-05-09T18:58:30.854Z,95706.47
2023-05-09T19:00:59.034Z,95705.69
2023-05-09T19:03:27.317Z,95721.53
2023-05-09T19:05:58.085Z,95723.44
2023-05-09T19:08:27.400Z,95706.63
2023-05-09T19:10:55.594Z,95715.66
2023-05-09T19:13:23.923Z,95714.09
2023-05-09T19:15:52.141Z,95708.22
2023-05-09T19:18:21.035Z,95723.13
2023-05-09T19:20:49.105Z,95690.00
2023-05-09T19:23:18.515Z,95697.28
2023-05-09T19:25:46.934Z,95679.69
2023-05-09T19:28:15.131Z,95721.84
2023-05-09T19:30:43.740Z,95723.09
2023-05-09T19:33:14.487Z,95720.88
2023-05-09T19:35:42.773Z,95719.41
2023-05-09T19:38:12.044Z,95725.28
2023-05-09T19:40:52.092Z,95720.22
2023-05-09T19:43:20.166Z,95720.84
2023-05-09T19:45:48.168Z,95719.28
2023-05-09T19:48:16.231Z,95719.09
2023-05-09T19:50:44.566Z,95710.06
2023-05-09T19:53:12.872Z,95719.22
2023-05-09T19:55:47.068Z,95720.97
2023-05-09T19:58:17.430Z,95712.69
2023-05-09T20:00:45.996Z,95713.16
2023-05-09T20:03:16.131Z,95708.25
2023-05-09T20:05:44.265Z,95714.59
2023-05-09T20:08:12.171Z,95712.38
2023-05-09T20:10:40.074Z,95717.13
2023-05-09T20:13:12.035Z,95712.38
2023-05-09T20:15:41.224Z,95717.28
2023-05-09T20:18:09.190Z,95712.38
2023-05-09T20:20:37.349Z,95716.94
2023-05-09T20:23:05.228Z,95717.59
2023-05-09T20:25:33.106Z,95716.94
2023-05-09T20:28:00.951Z,95710.94
2023-05-09T20:30:30.187Z,95713.31
2023-05-09T20:32:58.654Z,95710.00
2023-05-09T20:35:27.112Z,95708.84
2023-05-09T20:37:55.384Z,95704.41
2023-05-09T20:40:23.416Z,95702.00
2023-05-09T20:42:51.297Z,95696.47
2023-05-09T20:45:19.167Z,95693.19
2023-05-09T20:47:48.406Z,95707.41
2023-05-09T20:50:16.609Z,95700.78
2023-05-09T20:52:44.572Z,95698.84
2023-05-09T20:55:12.932Z,95700.31
2023-05-09T20:57:43.449Z,95695.41
2023-05-09T21:00:12.483Z,95690.34
2023-05-09T21:02:40.623Z,95687.00
2023-05-09T21:05:10.621Z,95695.06
2023-05-09T21:07:38.503Z,95688.72
2023-05-09T21:10:07.310Z,95677.47
2023-05-09T21:12:35.176Z,95684.13
2023-05-09T21:15:03.255Z,95687.31
2023-05-09T21:17:31.702Z,95700.25
2023-05-09T21:19:59.578Z,95692.84
2023-05-09T21:22:28.760Z,95693.31
2023-05-09T21:24:56.634Z,95687.63
2023-05-09T21:27:24.512Z,95684.31
2023-05-09T21:29:52.333Z,95693.94
2023-05-09T21:32:20.287Z,95688.56
2023-05-09T21:34:48.994Z,95688.56
2023-05-09T21:37:17.126Z,95684.78
2023-05-09T21:39:46.386Z,95670.84
2023-05-09T21:42:14.255Z,95686.53
2023-05-09T21:44:42.580Z,95681.44
2023-05-09T21:47:11.629Z,95672.59
2023-05-09T21:49:39.678Z,95677.31
2023-05-09T21:52:08.345Z,95675.56
2023-05-09T21:54:38.222Z,95680.16
2023-05-09T21:57:07.569Z,95675.91
2023-05-09T21:59:35.425Z,95669.09
2023-05-09T22:02:03.383Z,95689.81
2023-05-09T22:04:31.316Z,95668.16
2023-05-09T22:06:59.307Z,95667.97
2023-05-09T22:09:27.377Z,95665.28
2023-05-09T22:11:55.274Z,95663.19
2023-05-09T22:14:24.648Z,95668.56
2023-05-09T22:16:52.512Z,95659.41
2023-05-09T22:19:23.026Z,95661.91
2023-05-09T22:21:50.914Z,95656.25
2023-05-09T22:24:18.781Z,95670.44
2023-05-09T22:26:46.664Z,95662.50
2023-05-09T22:29:16.525Z,95655.06
2023-05-09T22:31:47.148Z,95664.38
2023-05-09T22:34:15.081Z,95662.78
2023-05-09T22:36:42.984Z,95659.63
2023-05-09T22:39:11.217Z,95662.94
2023-05-09T22:41:39.249Z,95653.88
2023-05-09T22:44:07.318Z,95653.28
2023-05-09T22:46:35.482Z,95650.09
2023-05-09T22:49:05.030Z,95651.69
2023-05-09T22:51:33.572Z,95647.91
2023-05-09T22:54:01.632Z,95648.84
2023-05-09T22:56:29.569Z,95653.41
2023-05-09T22:58:57.676Z,95655.00
2023-05-09T23:01:25.764Z,95655.00
2023-05-09T23:03:53.701Z,95656.28
2023-05-09T23:06:23.048Z,95645.53
2023-05-09T23:08:51.006Z,95650.25
2023-05-09T23:11:18.914Z,95651.88
2023-05-09T23:13:46.960Z,95646.66
2023-05-09T23:16:15.097Z,95640.03
2023-05-09T23:18:43.374Z,95644.16
2023-05-09T23:21:11.316Z,95639.59
2023-05-09T23:23:40.685Z,95635.00
2023-05-09T23:26:08.640Z,95646.38
2023-05-09T23:28:36.846Z,95641.63
2023-05-09T23:31:04.866Z,95641.28
2023-05-09T23:33:32.850Z,95636.88
2023-05-09T23:36:01.364Z,95631.31
2023-05-09T23:38:29.323Z,95631.50
2023-05-09T23:41:01.668Z,95635.28
2023-05-09T23:43:29.989Z,95633.72
2023-05-09T23:45:58.039Z,95626.75
2023-05-09T23:48:26.413Z,95621.97
2023-05-09T23:50:54.317Z,95624.03
2023-05-09T23:53:22.398Z,95623.84
2023-05-09T23:55:50.396Z,95622.09
2023-05-09T23:58:19.779Z,95615.78
